KSWO/SWO METAR and TAF weather

Enter ICAO airport designator
Station Type Date Time Source
KSWO METAR 2022/06/28 14:53 UTC NOAA

KSWO 281453Z 09005KT 10SM CLR 26/14 A3026 RMK AO2 SLP236 T02610144 51004


Station Type Date Time Source
KSWO Decoded METAR 2022/06/28 14:53 UTC NOAA

STILLWATER REGIONAL AIRPORT, OK, United States (KSWO) 36-10N 97-05W 290M
Jun 28, 2022 - 10:53 AM EDT / 2022.06.28 1453 UTC
Wind: from the E (090 degrees) at 6 MPH (5 KT):0
Visibility: 10 mile(s):0
Sky conditions: clear
Temperature: 79.0 F (26.1 C)
Dew Point: 57.9 F (14.4 C)
Relative Humidity: 48%
Pressure (altimeter): 30.26 in. Hg (1024 hPa)
Pressure tendency: 0.01 inches (0.4 hPa) higher than three hours ago
ob: KSWO 281453Z 09005KT 10SM CLR 26/14 A3026 RMK AO2 SLP236 T02610144 51004
cycle: 15

Station Type Date Time Source
KSWO TAF 2022/06/28 12:28 UTC NOAA

TAF KSWO 281126Z 2812/2912 06005KT P6SM BKN110
TEMPO 2812/2814 -RA
FM281800 10008KT P6SM FEW250
FM290300 VRB03KT P6SM SKC

Example: see airport list